sensor_id;sensor_type;location;lat;lon;timestamp;P1;durP1;ratioP1;P2;durP2;ratioP2
20067;SDS011;10194;50.824;7.134;2022-08-06T00:01:53;3.33;;;1.67;;
20067;SDS011;10194;50.824;7.134;2022-08-06T00:04:20;2.38;;;1.85;;
20067;SDS011;10194;50.824;7.134;2022-08-06T00:06:46;2.33;;;1.80;;
20067;SDS011;10194;50.824;7.134;2022-08-06T00:09:12;3.08;;;1.90;;
20067;SDS011;10194;50.824;7.134;2022-08-06T00:11:38;2.45;;;1.80;;
20067;SDS011;10194;50.824;7.134;2022-08-06T00:14:05;2.92;;;1.90;;
20067;SDS011;10194;50.824;7.134;2022-08-06T00:16:32;2.95;;;1.83;;
20067;SDS011;10194;50.824;7.134;2022-08-06T00:18:58;2.63;;;1.90;;
20067;SDS011;10194;50.824;7.134;2022-08-06T00:21:24;5.13;;;1.98;;
20067;SDS011;10194;50.824;7.134;2022-08-06T00:23:50;2.92;;;1.85;;
20067;SDS011;10194;50.824;7.134;2022-08-06T00:26:15;3.83;;;2.03;;
20067;SDS011;10194;50.824;7.134;2022-08-06T00:28:41;3.03;;;2.00;;
20067;SDS011;10194;50.824;7.134;2022-08-06T00:31:07;2.20;;;2.00;;
20067;SDS011;10194;50.824;7.134;2022-08-06T00:33:33;1.95;;;1.80;;
20067;SDS011;10194;50.824;7.134;2022-08-06T00:35:59;4.68;;;1.85;;
20067;SDS011;10194;50.824;7.134;2022-08-06T00:38:25;5.03;;;1.80;;
20067;SDS011;10194;50.824;7.134;2022-08-06T00:40:52;2.40;;;1.80;;
20067;SDS011;10194;50.824;7.134;2022-08-06T00:43:18;2.67;;;1.75;;
20067;SDS011;10194;50.824;7.134;2022-08-06T00:45:44;3.92;;;1.90;;
20067;SDS011;10194;50.824;7.134;2022-08-06T00:48:10;3.90;;;2.10;;
20067;SDS011;10194;50.824;7.134;2022-08-06T00:50:37;2.67;;;1.83;;
20067;SDS011;10194;50.824;7.134;2022-08-06T00:53:03;2.22;;;2.00;;
20067;SDS011;10194;50.824;7.134;2022-08-06T00:55:29;4.43;;;2.05;;
20067;SDS011;10194;50.824;7.134;2022-08-06T00:57:55;4.13;;;2.03;;
20067;SDS011;10194;50.824;7.134;2022-08-06T01:00:21;3.75;;;2.22;;
20067;SDS011;10194;50.824;7.134;2022-08-06T01:02:47;4.07;;;1.92;;
20067;SDS011;10194;50.824;7.134;2022-08-06T01:05:13;2.25;;;1.98;;
20067;SDS011;10194;50.824;7.134;2022-08-06T01:07:39;4.97;;;2.22;;
20067;SDS011;10194;50.824;7.134;2022-08-06T01:10:05;3.05;;;1.90;;
20067;SDS011;10194;50.824;7.134;2022-08-06T01:12:31;2.05;;;1.83;;
20067;SDS011;10194;50.824;7.134;2022-08-06T01:14:57;3.78;;;2.05;;
20067;SDS011;10194;50.824;7.134;2022-08-06T01:17:27;2.55;;;2.10;;
20067;SDS011;10194;50.824;7.134;2022-08-06T01:28:42;1.88;;;1.70;;
20067;SDS011;10194;50.824;7.134;2022-08-06T01:31:41;3.10;;;1.98;;
20067;SDS011;10194;50.824;7.134;2022-08-06T01:34:53;2.35;;;2.00;;
20067;SDS011;10194;50.824;7.134;2022-08-06T01:37:26;4.28;;;2.15;;
20067;SDS011;10194;50.824;7.134;2022-08-06T01:40:34;5.60;;;2.28;;
20067;SDS011;10194;50.824;7.134;2022-08-06T01:43:03;3.80;;;2.20;;
20067;SDS011;10194;50.824;7.134;2022-08-06T01:45:33;5.20;;;2.25;;
20067;SDS011;10194;50.824;7.134;2022-08-06T01:48:03;9.43;;;2.17;;
20067;SDS011;10194;50.824;7.134;2022-08-06T01:50:37;2.75;;;1.98;;
20067;SDS011;10194;50.824;7.134;2022-08-06T01:53:06;3.83;;;2.10;;
20067;SDS011;10194;50.824;7.134;2022-08-06T01:55:39;3.05;;;2.22;;
20067;SDS011;10194;50.824;7.134;2022-08-06T01:58:08;7.43;;;2.45;;
20067;SDS011;10194;50.824;7.134;2022-08-06T02:00:37;4.75;;;2.22;;
20067;SDS011;10194;50.824;7.134;2022-08-06T02:03:09;4.40;;;2.42;;
20067;SDS011;10194;50.824;7.134;2022-08-06T02:05:41;5.68;;;2.50;;
20067;SDS011;10194;50.824;7.134;2022-08-06T02:08:08;3.92;;;2.40;;
20067;SDS011;10194;50.824;7.134;2022-08-06T02:10:38;3.85;;;2.22;;
20067;SDS011;10194;50.824;7.134;2022-08-06T02:13:07;2.53;;;1.90;;
20067;SDS011;10194;50.824;7.134;2022-08-06T02:15:34;3.42;;;2.28;;
20067;SDS011;10194;50.824;7.134;2022-08-06T02:18:03;3.13;;;2.30;;
20067;SDS011;10194;50.824;7.134;2022-08-06T02:20:37;3.05;;;2.22;;
20067;SDS011;10194;50.824;7.134;2022-08-06T02:23:07;4.35;;;2.30;;
20067;SDS011;10194;50.824;7.134;2022-08-06T02:25:41;2.58;;;2.38;;
20067;SDS011;10194;50.824;7.134;2022-08-06T02:28:09;3.55;;;2.20;;
20067;SDS011;10194;50.824;7.134;2022-08-06T02:30:38;5.47;;;2.17;;
20067;SDS011;10194;50.824;7.134;2022-08-06T02:33:08;3.78;;;2.55;;
20067;SDS011;10194;50.824;7.134;2022-08-06T02:41:30;5.00;;;3.10;;
20067;SDS011;10194;50.824;7.134;2022-08-06T02:44:03;3.53;;;2.30;;
20067;SDS011;10194;50.824;7.134;2022-08-06T02:46:46;4.93;;;2.42;;
20067;SDS011;10194;50.824;7.134;2022-08-06T02:49:20;4.65;;;2.28;;
20067;SDS011;10194;50.824;7.134;2022-08-06T02:51:56;2.70;;;2.45;;
20067;SDS011;10194;50.824;7.134;2022-08-06T02:54:31;5.25;;;2.67;;
20067;SDS011;10194;50.824;7.134;2022-08-06T02:57:15;4.07;;;2.25;;
20067;SDS011;10194;50.824;7.134;2022-08-06T02:59:49;5.15;;;2.80;;
20067;SDS011;10194;50.824;7.134;2022-08-06T03:02:19;3.72;;;2.40;;
20067;SDS011;10194;50.824;7.134;2022-08-06T03:04:49;2.55;;;2.17;;
20067;SDS011;10194;50.824;7.134;2022-08-06T03:07:17;4.22;;;2.25;;
20067;SDS011;10194;50.824;7.134;2022-08-06T03:09:45;3.67;;;2.67;;
20067;SDS011;10194;50.824;7.134;2022-08-06T03:12:14;3.67;;;2.55;;
20067;SDS011;10194;50.824;7.134;2022-08-06T03:14:41;3.72;;;2.42;;
20067;SDS011;10194;50.824;7.134;2022-08-06T03:17:09;4.35;;;2.85;;
20067;SDS011;10194;50.824;7.134;2022-08-06T03:19:38;3.20;;;2.20;;
20067;SDS011;10194;50.824;7.134;2022-08-06T03:22:06;5.15;;;2.55;;
20067;SDS011;10194;50.824;7.134;2022-08-06T03:24:34;6.07;;;2.70;;
20067;SDS011;10194;50.824;7.134;2022-08-06T03:27:02;3.00;;;2.53;;
20067;SDS011;10194;50.824;7.134;2022-08-06T03:29:29;3.85;;;2.72;;
20067;SDS011;10194;50.824;7.134;2022-08-06T03:31:57;5.72;;;2.42;;
20067;SDS011;10194;50.824;7.134;2022-08-06T03:34:25;4.15;;;2.75;;
20067;SDS011;10194;50.824;7.134;2022-08-06T03:36:53;3.70;;;2.67;;
20067;SDS011;10194;50.824;7.134;2022-08-06T03:39:21;5.50;;;2.70;;
20067;SDS011;10194;50.824;7.134;2022-08-06T03:41:49;6.40;;;2.95;;
20067;SDS011;10194;50.824;7.134;2022-08-06T03:44:17;4.97;;;2.67;;
20067;SDS011;10194;50.824;7.134;2022-08-06T03:46:43;5.53;;;3.20;;
20067;SDS011;10194;50.824;7.134;2022-08-06T03:52:30;4.22;;;3.00;;
20067;SDS011;10194;50.824;7.134;2022-08-06T03:55:13;3.60;;;2.97;;
20067;SDS011;10194;50.824;7.134;2022-08-06T03:57:48;4.72;;;3.30;;
20067;SDS011;10194;50.824;7.134;2022-08-06T04:00:17;3.83;;;2.80;;
20067;SDS011;10194;50.824;7.134;2022-08-06T04:02:47;4.22;;;2.97;;
20067;SDS011;10194;50.824;7.134;2022-08-06T04:05:20;5.63;;;3.17;;
20067;SDS011;10194;50.824;7.134;2022-08-06T04:07:51;5.13;;;3.20;;
20067;SDS011;10194;50.824;7.134;2022-08-06T04:10:21;6.40;;;3.15;;
20067;SDS011;10194;50.824;7.134;2022-08-06T04:12:53;4.03;;;3.28;;
20067;SDS011;10194;50.824;7.134;2022-08-06T04:15:20;6.80;;;3.08;;
20067;SDS011;10194;50.824;7.134;2022-08-06T04:17:46;4.32;;;3.20;;
20067;SDS011;10194;50.824;7.134;2022-08-06T04:20:14;4.50;;;3.00;;
20067;SDS011;10194;50.824;7.134;2022-08-06T04:22:43;4.00;;;3.00;;
20067;SDS011;10194;50.824;7.134;2022-08-06T04:25:09;5.30;;;3.35;;
20067;SDS011;10194;50.824;7.134;2022-08-06T04:27:36;6.80;;;3.80;;
20067;SDS011;10194;50.824;7.134;2022-08-06T04:30:05;4.95;;;3.17;;
20067;SDS011;10194;50.824;7.134;2022-08-06T04:32:32;4.45;;;3.33;;
20067;SDS011;10194;50.824;7.134;2022-08-06T04:35:03;5.93;;;3.17;;
20067;SDS011;10194;50.824;7.134;2022-08-06T04:37:32;4.82;;;3.10;;
20067;SDS011;10194;50.824;7.134;2022-08-06T04:39:58;5.63;;;3.28;;
20067;SDS011;10194;50.824;7.134;2022-08-06T04:42:25;3.45;;;2.80;;
20067;SDS011;10194;50.824;7.134;2022-08-06T04:44:52;6.75;;;3.33;;
20067;SDS011;10194;50.824;7.134;2022-08-06T04:47:18;5.07;;;2.90;;
20067;SDS011;10194;50.824;7.134;2022-08-06T04:49:45;6.95;;;3.50;;
20067;SDS011;10194;50.824;7.134;2022-08-06T04:52:24;3.58;;;2.78;;
20067;SDS011;10194;50.824;7.134;2022-08-06T04:54:52;5.97;;;2.88;;
20067;SDS011;10194;50.824;7.134;2022-08-06T04:57:18;4.07;;;3.00;;
20067;SDS011;10194;50.824;7.134;2022-08-06T04:59:44;4.75;;;3.08;;
20067;SDS011;10194;50.824;7.134;2022-08-06T05:02:10;5.40;;;3.60;;
20067;SDS011;10194;50.824;7.134;2022-08-06T05:04:36;5.47;;;3.10;;
20067;SDS011;10194;50.824;7.134;2022-08-06T05:09:56;6.30;;;3.13;;
20067;SDS011;10194;50.824;7.134;2022-08-06T05:12:27;6.20;;;3.20;;
20067;SDS011;10194;50.824;7.134;2022-08-06T05:15:06;3.65;;;2.92;;
20067;SDS011;10194;50.824;7.134;2022-08-06T05:17:40;5.15;;;3.40;;
20067;SDS011;10194;50.824;7.134;2022-08-06T05:20:18;3.95;;;3.08;;
20067;SDS011;10194;50.824;7.134;2022-08-06T05:22:53;4.70;;;3.17;;
20067;SDS011;10194;50.824;7.134;2022-08-06T05:25:24;5.25;;;2.92;;
20067;SDS011;10194;50.824;7.134;2022-08-06T05:27:50;6.65;;;3.60;;
20067;SDS011;10194;50.824;7.134;2022-08-06T05:30:16;3.65;;;3.20;;
20067;SDS011;10194;50.824;7.134;2022-08-06T05:32:46;8.60;;;4.00;;
20067;SDS011;10194;50.824;7.134;2022-08-06T05:35:14;5.60;;;3.28;;
20067;SDS011;10194;50.824;7.134;2022-08-06T05:37:40;6.15;;;3.38;;
20067;SDS011;10194;50.824;7.134;2022-08-06T05:40:07;4.88;;;2.88;;
20067;SDS011;10194;50.824;7.134;2022-08-06T05:42:33;7.82;;;4.47;;
20067;SDS011;10194;50.824;7.134;2022-08-06T05:45:00;6.05;;;3.53;;
20067;SDS011;10194;50.824;7.134;2022-08-06T05:47:27;4.00;;;3.22;;
20067;SDS011;10194;50.824;7.134;2022-08-06T05:50:09;6.07;;;3.75;;
20067;SDS011;10194;50.824;7.134;2022-08-06T05:52:50;5.53;;;3.88;;
20067;SDS011;10194;50.824;7.134;2022-08-06T05:55:42;7.68;;;4.35;;
20067;SDS011;10194;50.824;7.134;2022-08-06T05:58:23;8.82;;;4.13;;
20067;SDS011;10194;50.824;7.134;2022-08-06T06:01:05;8.57;;;4.15;;
20067;SDS011;10194;50.824;7.134;2022-08-06T06:03:35;5.47;;;4.13;;
20067;SDS011;10194;50.824;7.134;2022-08-06T06:06:04;7.68;;;3.88;;
20067;SDS011;10194;50.824;7.134;2022-08-06T06:08:30;5.93;;;4.18;;
20067;SDS011;10194;50.824;7.134;2022-08-06T06:10:56;7.20;;;4.38;;
20067;SDS011;10194;50.824;7.134;2022-08-06T06:13:23;6.57;;;4.35;;
20067;SDS011;10194;50.824;7.134;2022-08-06T06:15:56;8.65;;;4.25;;
20067;SDS011;10194;50.824;7.134;2022-08-06T06:24:44;7.45;;;3.72;;
20067;SDS011;10194;50.824;7.134;2022-08-06T06:27:19;8.32;;;3.90;;
20067;SDS011;10194;50.824;7.134;2022-08-06T06:32:37;4.90;;;3.78;;
20067;SDS011;10194;50.824;7.134;2022-08-06T06:35:42;6.43;;;3.63;;
20067;SDS011;10194;50.824;7.134;2022-08-06T06:41:09;5.75;;;3.33;;
20067;SDS011;10194;50.824;7.134;2022-08-06T06:46:30;4.88;;;3.45;;
20067;SDS011;10194;50.824;7.134;2022-08-06T06:49:06;6.45;;;3.05;;
20067;SDS011;10194;50.824;7.134;2022-08-06T06:51:45;7.35;;;2.92;;
20067;SDS011;10194;50.824;7.134;2022-08-06T06:54:50;8.63;;;2.83;;
20067;SDS011;10194;50.824;7.134;2022-08-06T06:57:15;4.32;;;2.30;;
20067;SDS011;10194;50.824;7.134;2022-08-06T06:59:47;6.70;;;2.45;;
20067;SDS011;10194;50.824;7.134;2022-08-06T07:02:22;6.75;;;2.75;;
20067;SDS011;10194;50.824;7.134;2022-08-06T07:04:49;3.92;;;1.88;;
20067;SDS011;10194;50.824;7.134;2022-08-06T07:07:18;4.22;;;2.20;;
20067;SDS011;10194;50.824;7.134;2022-08-06T07:09:44;2.75;;;1.70;;
20067;SDS011;10194;50.824;7.134;2022-08-06T07:12:12;3.45;;;1.80;;
20067;SDS011;10194;50.824;7.134;2022-08-06T07:14:40;5.32;;;1.95;;
20067;SDS011;10194;50.824;7.134;2022-08-06T07:17:08;1.85;;;1.30;;
20067;SDS011;10194;50.824;7.134;2022-08-06T07:19:35;2.03;;;1.40;;
20067;SDS011;10194;50.824;7.134;2022-08-06T07:22:02;4.47;;;1.42;;
20067;SDS011;10194;50.824;7.134;2022-08-06T07:24:30;5.75;;;1.63;;
20067;SDS011;10194;50.824;7.134;2022-08-06T07:27:00;2.72;;;1.30;;
20067;SDS011;10194;50.824;7.134;2022-08-06T07:29:27;2.40;;;1.38;;
20067;SDS011;10194;50.824;7.134;2022-08-06T07:31:55;2.63;;;1.17;;
20067;SDS011;10194;50.824;7.134;2022-08-06T07:34:23;3.15;;;1.30;;
20067;SDS011;10194;50.824;7.134;2022-08-06T07:36:51;4.35;;;1.40;;
20067;SDS011;10194;50.824;7.134;2022-08-06T07:39:23;2.97;;;1.10;;
20067;SDS011;10194;50.824;7.134;2022-08-06T07:41:53;3.83;;;1.40;;
20067;SDS011;10194;50.824;7.134;2022-08-06T07:44:23;3.03;;;1.10;;
20067;SDS011;10194;50.824;7.134;2022-08-06T07:46:53;2.67;;;1.20;;
20067;SDS011;10194;50.824;7.134;2022-08-06T07:49:23;2.35;;;1.30;;
20067;SDS011;10194;50.824;7.134;2022-08-06T07:51:50;3.50;;;1.15;;
20067;SDS011;10194;50.824;7.134;2022-08-06T07:54:20;3.10;;;1.10;;
20067;SDS011;10194;50.824;7.134;2022-08-06T07:56:50;1.80;;;1.10;;
20067;SDS011;10194;50.824;7.134;2022-08-06T07:59:17;3.00;;;1.00;;
20067;SDS011;10194;50.824;7.134;2022-08-06T08:01:44;1.63;;;1.25;;
20067;SDS011;10194;50.824;7.134;2022-08-06T08:04:10;1.42;;;1.00;;
20067;SDS011;10194;50.824;7.134;2022-08-06T08:06:54;4.65;;;1.20;;
20067;SDS011;10194;50.824;7.134;2022-08-06T08:09:24;4.07;;;1.00;;
20067;SDS011;10194;50.824;7.134;2022-08-06T08:11:52;2.10;;;0.90;;
20067;SDS011;10194;50.824;7.134;2022-08-06T08:14:19;1.48;;;1.00;;
20067;SDS011;10194;50.824;7.134;2022-08-06T08:16:47;1.77;;;0.80;;
20067;SDS011;10194;50.824;7.134;2022-08-06T08:19:27;2.58;;;1.20;;
20067;SDS011;10194;50.824;7.134;2022-08-06T08:24:28;3.13;;;0.80;;
20067;SDS011;10194;50.824;7.134;2022-08-06T08:26:56;4.25;;;1.00;;
20067;SDS011;10194;50.824;7.134;2022-08-06T08:29:23;2.92;;;1.17;;
20067;SDS011;10194;50.824;7.134;2022-08-06T08:31:49;1.23;;;0.93;;
20067;SDS011;10194;50.824;7.134;2022-08-06T08:34:15;1.60;;;1.00;;
20067;SDS011;10194;50.824;7.134;2022-08-06T08:36:41;2.55;;;1.27;;
20067;SDS011;10194;50.824;7.134;2022-08-06T08:39:07;2.50;;;1.17;;
20067;SDS011;10194;50.824;7.134;2022-08-06T08:41:39;3.67;;;1.20;;
20067;SDS011;10194;50.824;7.134;2022-08-06T08:44:09;1.55;;;1.08;;
20067;SDS011;10194;50.824;7.134;2022-08-06T08:46:37;2.38;;;1.10;;
20067;SDS011;10194;50.824;7.134;2022-08-06T08:49:13;3.42;;;1.42;;
20067;SDS011;10194;50.824;7.134;2022-08-06T08:51:45;2.55;;;1.33;;
20067;SDS011;10194;50.824;7.134;2022-08-06T08:54:13;2.78;;;1.00;;
20067;SDS011;10194;50.824;7.134;2022-08-06T08:56:42;2.10;;;1.00;;
20067;SDS011;10194;50.824;7.134;2022-08-06T08:59:09;4.15;;;1.20;;
20067;SDS011;10194;50.824;7.134;2022-08-06T09:01:35;2.10;;;0.90;;
20067;SDS011;10194;50.824;7.134;2022-08-06T09:04:02;1.10;;;0.90;;
20067;SDS011;10194;50.824;7.134;2022-08-06T09:06:30;1.98;;;0.90;;
20067;SDS011;10194;50.824;7.134;2022-08-06T09:08:57;1.10;;;0.82;;
20067;SDS011;10194;50.824;7.134;2022-08-06T09:11:30;1.40;;;0.90;;
20067;SDS011;10194;50.824;7.134;2022-08-06T09:14:07;2.58;;;1.05;;
20067;SDS011;10194;50.824;7.134;2022-08-06T09:16:35;2.25;;;0.90;;
20067;SDS011;10194;50.824;7.134;2022-08-06T09:19:02;1.17;;;1.00;;
20067;SDS011;10194;50.824;7.134;2022-08-06T09:21:30;1.55;;;0.93;;
20067;SDS011;10194;50.824;7.134;2022-08-06T09:23:57;1.42;;;1.00;;
20067;SDS011;10194;50.824;7.134;2022-08-06T09:26:23;0.90;;;0.90;;
20067;SDS011;10194;50.824;7.134;2022-08-06T09:28:49;2.90;;;1.10;;
20067;SDS011;10194;50.824;7.134;2022-08-06T09:31:16;4.95;;;1.33;;
20067;SDS011;10194;50.824;7.134;2022-08-06T09:34:03;1.88;;;1.05;;
20067;SDS011;10194;50.824;7.134;2022-08-06T09:36:44;2.45;;;0.80;;
20067;SDS011;10194;50.824;7.134;2022-08-06T09:39:14;2.75;;;0.90;;
20067;SDS011;10194;50.824;7.134;2022-08-06T09:41:47;1.58;;;1.00;;
20067;SDS011;10194;50.824;7.134;2022-08-06T09:44:14;0.80;;;0.70;;
20067;SDS011;10194;50.824;7.134;2022-08-06T09:46:42;1.38;;;0.90;;
20067;SDS011;10194;50.824;7.134;2022-08-06T09:49:14;1.52;;;0.95;;
20067;SDS011;10194;50.824;7.134;2022-08-06T09:51:42;3.35;;;1.33;;
20067;SDS011;10194;50.824;7.134;2022-08-06T09:54:09;2.10;;;0.90;;
20067;SDS011;10194;50.824;7.134;2022-08-06T09:56:40;2.30;;;0.60;;
20067;SDS011;10194;50.824;7.134;2022-08-06T09:59:08;2.30;;;0.50;;
20067;SDS011;10194;50.824;7.134;2022-08-06T10:01:39;3.00;;;0.60;;
20067;SDS011;10194;50.824;7.134;2022-08-06T10:04:14;2.42;;;0.90;;
20067;SDS011;10194;50.824;7.134;2022-08-06T10:06:56;2.15;;;0.90;;
20067;SDS011;10194;50.824;7.134;2022-08-06T10:09:25;1.42;;;0.70;;
20067;SDS011;10194;50.824;7.134;2022-08-06T10:11:52;2.35;;;0.70;;
20067;SDS011;10194;50.824;7.134;2022-08-06T10:17:08;2.50;;;0.80;;
20067;SDS011;10194;50.824;7.134;2022-08-06T10:19:41;2.63;;;0.60;;
20067;SDS011;10194;50.824;7.134;2022-08-06T10:22:12;0.70;;;0.63;;
20067;SDS011;10194;50.824;7.134;2022-08-06T10:24:43;1.98;;;0.60;;
20067;SDS011;10194;50.824;7.134;2022-08-06T10:27:19;0.98;;;0.77;;
20067;SDS011;10194;50.824;7.134;2022-08-06T10:29:53;1.00;;;0.70;;
20067;SDS011;10194;50.824;7.134;2022-08-06T10:35:20;1.10;;;0.70;;
20067;SDS011;10194;50.824;7.134;2022-08-06T10:37:52;1.33;;;0.82;;
20067;SDS011;10194;50.824;7.134;2022-08-06T10:40:24;1.98;;;0.65;;
20067;SDS011;10194;50.824;7.134;2022-08-06T10:42:52;1.60;;;0.70;;
20067;SDS011;10194;50.824;7.134;2022-08-06T10:45:18;2.72;;;0.75;;
20067;SDS011;10194;50.824;7.134;2022-08-06T10:47:45;2.03;;;0.68;;
20067;SDS011;10194;50.824;7.134;2022-08-06T10:50:12;1.77;;;0.80;;
20067;SDS011;10194;50.824;7.134;2022-08-06T10:52:40;1.05;;;0.60;;
20067;SDS011;10194;50.824;7.134;2022-08-06T10:55:07;0.50;;;0.43;;
20067;SDS011;10194;50.824;7.134;2022-08-06T10:57:35;0.70;;;0.70;;
20067;SDS011;10194;50.824;7.134;2022-08-06T11:00:05;1.20;;;0.70;;
20067;SDS011;10194;50.824;7.134;2022-08-06T11:02:44;0.50;;;0.50;;
20067;SDS011;10194;50.824;7.134;2022-08-06T11:05:25;2.33;;;0.70;;
20067;SDS011;10194;50.824;7.134;2022-08-06T11:13:54;4.03;;;0.70;;
20067;SDS011;10194;50.824;7.134;2022-08-06T11:16:31;0.68;;;0.60;;
20067;SDS011;10194;50.824;7.134;2022-08-06T11:19:01;0.85;;;0.70;;
20067;SDS011;10194;50.824;7.134;2022-08-06T11:24:12;0.60;;;0.60;;
20067;SDS011;10194;50.824;7.134;2022-08-06T11:26:41;0.65;;;0.60;;
20067;SDS011;10194;50.824;7.134;2022-08-06T11:29:10;5.32;;;0.70;;
20067;SDS011;10194;50.824;7.134;2022-08-06T11:31:39;0.73;;;0.55;;
20067;SDS011;10194;50.824;7.134;2022-08-06T11:34:11;1.58;;;0.57;;
20067;SDS011;10194;50.824;7.134;2022-08-06T11:36:46;0.75;;;0.52;;
20067;SDS011;10194;50.824;7.134;2022-08-06T11:39:17;1.42;;;0.70;;
20067;SDS011;10194;50.824;7.134;2022-08-06T11:41:49;0.75;;;0.63;;
20067;SDS011;10194;50.824;7.134;2022-08-06T11:44:29;1.98;;;0.70;;
20067;SDS011;10194;50.824;7.134;2022-08-06T11:47:16;0.60;;;0.60;;
20067;SDS011;10194;50.824;7.134;2022-08-06T11:49:47;0.50;;;0.50;;
20067;SDS011;10194;50.824;7.134;2022-08-06T11:52:48;1.58;;;0.60;;
20067;SDS011;10194;50.824;7.134;2022-08-06T11:55:09;0.63;;;0.47;;
20067;SDS011;10194;50.824;7.134;2022-08-06T11:57:37;1.65;;;0.60;;
20067;SDS011;10194;50.824;7.134;2022-08-06T12:00:06;1.48;;;0.50;;
20067;SDS011;10194;50.824;7.134;2022-08-06T12:07:40;1.20;;;0.70;;
20067;SDS011;10194;50.824;7.134;2022-08-06T12:10:10;2.10;;;0.60;;
20067;SDS011;10194;50.824;7.134;2022-08-06T12:12:49;3.63;;;0.90;;
20067;SDS011;10194;50.824;7.134;2022-08-06T12:25:39;3.03;;;0.70;;
20067;SDS011;10194;50.824;7.134;2022-08-06T12:28:08;0.52;;;0.52;;
20067;SDS011;10194;50.824;7.134;2022-08-06T12:30:43;1.00;;;0.70;;
20067;SDS011;10194;50.824;7.134;2022-08-06T12:33:15;0.90;;;0.50;;
20067;SDS011;10194;50.824;7.134;2022-08-06T12:38:31;1.30;;;0.68;;
20067;SDS011;10194;50.824;7.134;2022-08-06T12:40:59;2.05;;;0.65;;
20067;SDS011;10194;50.824;7.134;2022-08-06T12:43:31;1.88;;;0.95;;
20067;SDS011;10194;50.824;7.134;2022-08-06T12:46:00;0.63;;;0.63;;
20067;SDS011;10194;50.824;7.134;2022-08-06T12:48:31;2.10;;;0.80;;
20067;SDS011;10194;50.824;7.134;2022-08-06T12:51:06;2.35;;;0.90;;
20067;SDS011;10194;50.824;7.134;2022-08-06T12:53:38;1.90;;;0.90;;
20067;SDS011;10194;50.824;7.134;2022-08-06T12:56:16;2.15;;;0.80;;
20067;SDS011;10194;50.824;7.134;2022-08-06T12:58:43;1.05;;;0.82;;
20067;SDS011;10194;50.824;7.134;2022-08-06T13:01:11;2.03;;;0.80;;
20067;SDS011;10194;50.824;7.134;2022-08-06T13:03:45;1.17;;;1.00;;
20067;SDS011;10194;50.824;7.134;2022-08-06T13:06:15;1.52;;;0.88;;
20067;SDS011;10194;50.824;7.134;2022-08-06T13:08:46;0.70;;;0.70;;
20067;SDS011;10194;50.824;7.134;2022-08-06T13:11:15;1.13;;;0.70;;
20067;SDS011;10194;50.824;7.134;2022-08-06T13:13:45;0.98;;;0.80;;
20067;SDS011;10194;50.824;7.134;2022-08-06T13:16:14;1.17;;;0.80;;
20067;SDS011;10194;50.824;7.134;2022-08-06T13:18:42;1.77;;;0.90;;
20067;SDS011;10194;50.824;7.134;2022-08-06T13:21:29;0.90;;;0.90;;
20067;SDS011;10194;50.824;7.134;2022-08-06T13:23:55;1.88;;;1.00;;
20067;SDS011;10194;50.824;7.134;2022-08-06T13:29:03;1.65;;;0.80;;
20067;SDS011;10194;50.824;7.134;2022-08-06T13:31:29;1.95;;;1.10;;
20067;SDS011;10194;50.824;7.134;2022-08-06T13:34:01;0.98;;;0.90;;
20067;SDS011;10194;50.824;7.134;2022-08-06T13:36:30;0.88;;;0.80;;
20067;SDS011;10194;50.824;7.134;2022-08-06T13:38:58;1.35;;;0.90;;
20067;SDS011;10194;50.824;7.134;2022-08-06T13:41:29;1.00;;;0.90;;
20067;SDS011;10194;50.824;7.134;2022-08-06T13:43:58;1.58;;;1.08;;
20067;SDS011;10194;50.824;7.134;2022-08-06T13:46:27;1.30;;;1.10;;
20067;SDS011;10194;50.824;7.134;2022-08-06T13:48:53;1.65;;;1.10;;
20067;SDS011;10194;50.824;7.134;2022-08-06T13:51:23;1.45;;;0.90;;
20067;SDS011;10194;50.824;7.134;2022-08-06T13:53:51;1.75;;;0.90;;
20067;SDS011;10194;50.824;7.134;2022-08-06T13:56:17;0.70;;;0.70;;
20067;SDS011;10194;50.824;7.134;2022-08-06T13:58:43;2.40;;;0.93;;
20067;SDS011;10194;50.824;7.134;2022-08-06T14:01:12;2.42;;;1.10;;
20067;SDS011;10194;50.824;7.134;2022-08-06T14:03:39;1.58;;;0.80;;
20067;SDS011;10194;50.824;7.134;2022-08-06T14:06:05;1.10;;;0.90;;
20067;SDS011;10194;50.824;7.134;2022-08-06T14:08:31;2.25;;;1.00;;
20067;SDS011;10194;50.824;7.134;2022-08-06T14:10:56;1.33;;;0.90;;
20067;SDS011;10194;50.824;7.134;2022-08-06T14:13:22;1.77;;;1.08;;
20067;SDS011;10194;50.824;7.134;2022-08-06T14:15:49;1.00;;;0.93;;
20067;SDS011;10194;50.824;7.134;2022-08-06T14:18:19;1.17;;;1.00;;
20067;SDS011;10194;50.824;7.134;2022-08-06T14:20:46;2.00;;;1.02;;
20067;SDS011;10194;50.824;7.134;2022-08-06T14:23:13;1.63;;;0.93;;
20067;SDS011;10194;50.824;7.134;2022-08-06T14:25:40;2.58;;;0.88;;
20067;SDS011;10194;50.824;7.134;2022-08-06T14:28:07;1.38;;;0.80;;
20067;SDS011;10194;50.824;7.134;2022-08-06T14:30:33;1.75;;;0.85;;
20067;SDS011;10194;50.824;7.134;2022-08-06T14:32:59;1.00;;;0.93;;
20067;SDS011;10194;50.824;7.134;2022-08-06T14:35:27;0.90;;;0.90;;
20067;SDS011;10194;50.824;7.134;2022-08-06T14:37:54;1.00;;;0.90;;
20067;SDS011;10194;50.824;7.134;2022-08-06T14:40:20;0.90;;;0.90;;
20067;SDS011;10194;50.824;7.134;2022-08-06T14:43:07;1.85;;;0.90;;
20067;SDS011;10194;50.824;7.134;2022-08-06T14:45:51;1.10;;;0.98;;
20067;SDS011;10194;50.824;7.134;2022-08-06T14:48:17;1.02;;;0.93;;
20067;SDS011;10194;50.824;7.134;2022-08-06T14:50:42;0.73;;;0.73;;
20067;SDS011;10194;50.824;7.134;2022-08-06T14:53:08;1.08;;;0.77;;
20067;SDS011;10194;50.824;7.134;2022-08-06T14:55:34;2.03;;;1.00;;
20067;SDS011;10194;50.824;7.134;2022-08-06T14:58:00;1.20;;;0.90;;
20067;SDS011;10194;50.824;7.134;2022-08-06T15:00:26;1.58;;;1.00;;
20067;SDS011;10194;50.824;7.134;2022-08-06T15:02:52;2.65;;;0.90;;
20067;SDS011;10194;50.824;7.134;2022-08-06T15:07:47;1.75;;;1.02;;
20067;SDS011;10194;50.824;7.134;2022-08-06T15:10:12;2.08;;;1.88;;
20067;SDS011;10194;50.824;7.134;2022-08-06T15:12:46;1.00;;;0.60;;
20067;SDS011;10194;50.824;7.134;2022-08-06T15:15:12;1.23;;;0.80;;
20067;SDS011;10194;50.824;7.134;2022-08-06T15:17:38;1.60;;;0.90;;
20067;SDS011;10194;50.824;7.134;2022-08-06T15:20:03;1.42;;;0.90;;
20067;SDS011;10194;50.824;7.134;2022-08-06T15:22:30;1.42;;;0.82;;
20067;SDS011;10194;50.824;7.134;2022-08-06T15:24:56;4.10;;;1.17;;
20067;SDS011;10194;50.824;7.134;2022-08-06T15:27:21;0.90;;;0.80;;
20067;SDS011;10194;50.824;7.134;2022-08-06T15:29:47;0.88;;;0.88;;
20067;SDS011;10194;50.824;7.134;2022-08-06T15:32:13;1.63;;;1.30;;
20067;SDS011;10194;50.824;7.134;2022-08-06T15:34:40;1.10;;;1.00;;
20067;SDS011;10194;50.824;7.134;2022-08-06T15:37:06;4.75;;;1.42;;
20067;SDS011;10194;50.824;7.134;2022-08-06T15:39:33;0.95;;;0.80;;
20067;SDS011;10194;50.824;7.134;2022-08-06T15:42:00;1.20;;;1.02;;
20067;SDS011;10194;50.824;7.134;2022-08-06T15:44:26;1.10;;;1.00;;
20067;SDS011;10194;50.824;7.134;2022-08-06T15:46:52;2.20;;;1.10;;
20067;SDS011;10194;50.824;7.134;2022-08-06T15:49:18;1.42;;;0.98;;
20067;SDS011;10194;50.824;7.134;2022-08-06T15:51:43;1.20;;;1.10;;
20067;SDS011;10194;50.824;7.134;2022-08-06T15:54:10;1.15;;;1.10;;
20067;SDS011;10194;50.824;7.134;2022-08-06T15:56:36;2.08;;;1.10;;
20067;SDS011;10194;50.824;7.134;2022-08-06T15:59:02;1.75;;;1.30;;
20067;SDS011;10194;50.824;7.134;2022-08-06T16:01:28;3.70;;;1.10;;
20067;SDS011;10194;50.824;7.134;2022-08-06T16:03:54;1.70;;;1.30;;
20067;SDS011;10194;50.824;7.134;2022-08-06T16:06:20;2.92;;;0.90;;
20067;SDS011;10194;50.824;7.134;2022-08-06T16:08:46;2.05;;;0.95;;
20067;SDS011;10194;50.824;7.134;2022-08-06T16:11:12;2.05;;;1.55;;
20067;SDS011;10194;50.824;7.134;2022-08-06T16:13:38;3.85;;;2.28;;
20067;SDS011;10194;50.824;7.134;2022-08-06T16:16:04;1.45;;;0.80;;
20067;SDS011;10194;50.824;7.134;2022-08-06T16:18:32;1.58;;;0.80;;
20067;SDS011;10194;50.824;7.134;2022-08-06T16:20:58;0.68;;;0.68;;